createdAt,value
2019-06-01T00:00:58.000Z,43.79
2019-06-01T00:03:31.459Z,43.73
2019-06-01T00:06:05.461Z,43.69
2019-06-01T00:08:40.184Z,43.57
2019-06-01T00:11:14.681Z,43.35
2019-06-01T00:13:47.821Z,43.27
2019-06-01T00:16:22.741Z,43.04
2019-06-01T00:18:56.045Z,43.03
2019-06-01T00:21:29.190Z,42.94
2019-06-01T00:24:02.565Z,42.91
2019-06-01T00:26:35.978Z,42.99
2019-06-01T00:29:09.186Z,42.95
2019-06-01T00:31:43.038Z,42.90
2019-06-01T00:34:18.684Z,42.88
2019-06-01T00:36:52.042Z,42.74
2019-06-01T00:39:25.245Z,42.71
2019-06-01T00:41:58.486Z,42.68
2019-06-01T00:44:31.705Z,42.62
2019-06-01T00:47:04.843Z,42.61
2019-06-01T00:49:38.037Z,42.85
2019-06-01T00:52:11.181Z,42.85
2019-06-01T00:54:47.246Z,43.39
2019-06-01T00:57:22.223Z,44.04
2019-06-01T00:59:56.630Z,44.85
2019-06-01T01:02:29.774Z,45.69
2019-06-01T01:05:12.213Z,46.25
2019-06-01T01:07:46.583Z,46.51
2019-06-01T01:10:21.245Z,47.01
2019-06-01T01:12:56.192Z,47.82
2019-06-01T01:15:29.386Z,48.09
2019-06-01T01:18:02.809Z,48.43
2019-06-01T01:20:37.440Z,48.67
2019-06-01T01:23:10.539Z,48.75
2019-06-01T01:25:43.782Z,49.18
2019-06-01T01:28:16.872Z,49.39
2019-06-01T01:31:03.124Z,49.52
2019-06-01T01:33:25.038Z,49.61
2019-06-01T01:35:58.456Z,49.79
2019-06-01T01:38:33.169Z,49.94
2019-06-01T01:41:08.051Z,50.14
2019-06-01T01:43:41.428Z,50.42
2019-06-01T01:46:14.652Z,50.81
2019-06-01T01:48:47.801Z,51.07
2019-06-01T01:51:21.012Z,51.24
2019-06-01T01:53:54.726Z,51.39
2019-06-01T01:56:31.348Z,51.56
2019-06-01T01:59:04.672Z,51.72
2019-06-01T02:01:37.787Z,51.88
2019-06-01T02:04:11.065Z,52.06
2019-06-01T02:06:44.451Z,52.22
2019-06-01T02:09:18.474Z,52.52
2019-06-01T02:11:51.518Z,52.52
2019-06-01T02:14:24.784Z,52.67
2019-06-01T02:16:58.159Z,52.74
2019-06-01T02:19:31.357Z,53.05
2019-06-01T02:22:04.743Z,53.15
2019-06-01T02:24:39.432Z,53.33
2019-06-01T02:27:12.632Z,53.62
2019-06-01T02:29:47.297Z,53.90
2019-06-01T02:32:20.899Z,54.16
2019-06-01T02:34:56.444Z,54.23
2019-06-01T02:37:31.366Z,54.29
2019-06-01T02:40:06.048Z,54.29
2019-06-01T02:42:39.269Z,54.27
2019-06-01T02:45:13.202Z,54.46
2019-06-01T02:47:48.753Z,54.61
2019-06-01T02:50:21.947Z,54.68
2019-06-01T02:52:55.560Z,54.74
2019-06-01T02:55:29.077Z,54.66
2019-06-01T02:58:02.510Z,54.69
2019-06-01T03:00:49.325Z,54.89
2019-06-01T03:03:22.521Z,55.02
2019-06-01T03:05:57.440Z,55.07
2019-06-01T03:08:31.005Z,54.83
2019-06-01T03:11:05.938Z,54.45
2019-06-01T03:13:41.208Z,53.89
2019-06-01T03:16:14.749Z,53.63
2019-06-01T03:18:47.944Z,53.35
2019-06-01T03:21:21.098Z,53.36
2019-06-01T03:23:54.381Z,53.97
2019-06-01T03:26:27.513Z,53.84
2019-06-01T03:29:03.612Z,54.76
2019-06-01T03:31:37.816Z,55.17
2019-06-01T03:34:11.557Z,55.36
2019-06-01T03:36:44.844Z,55.48
2019-06-01T03:39:17.956Z,55.64
2019-06-01T03:41:51.060Z,54.87
2019-06-01T03:44:24.459Z,54.83
2019-06-01T03:46:57.723Z,55.04
2019-06-01T03:49:32.104Z,55.35
2019-06-01T03:52:05.271Z,55.32
2019-06-01T03:54:41.004Z,55.13
2019-06-01T03:57:14.081Z,55.36
2019-06-01T03:59:48.947Z,55.72
2019-06-01T04:02:32.739Z,55.83
2019-06-01T04:05:01.046Z,55.75
2019-06-01T04:07:34.512Z,56.13
2019-06-01T04:10:08.060Z,56.37
2019-06-01T04:12:41.276Z,56.36
2019-06-01T04:15:16.815Z,56.49
2019-06-01T04:17:49.708Z,56.38
2019-06-01T04:20:22.774Z,56.47
2019-06-01T04:22:56.094Z,56.47
2019-06-01T04:25:30.747Z,56.34
2019-06-01T04:28:06.256Z,56.36
2019-06-01T04:30:39.565Z,56.01
2019-06-01T04:33:13.254Z,56.02
2019-06-01T04:35:46.395Z,55.39
2019-06-01T04:38:19.507Z,55.20
2019-06-01T04:40:52.804Z,55.09
2019-06-01T04:43:25.968Z,55.11
2019-06-01T04:45:59.202Z,54.90
2019-06-01T04:48:32.411Z,55.00
2019-06-01T04:51:08.795Z,54.74
2019-06-01T04:53:41.935Z,54.45
2019-06-01T04:56:15.293Z,54.22
2019-06-01T04:58:48.720Z,53.84
2019-06-01T05:01:21.743Z,54.46
2019-06-01T05:03:54.926Z,53.95
2019-06-01T05:06:28.080Z,54.31
2019-06-01T05:09:01.400Z,54.30
2019-06-01T05:11:34.848Z,54.18
2019-06-01T05:14:09.572Z,54.13
2019-06-01T05:16:42.838Z,54.18
2019-06-01T05:19:16.664Z,54.08
2019-06-01T05:21:50.079Z,53.52
2019-06-01T05:24:23.428Z,53.38
2019-06-01T05:26:59.252Z,53.29
2019-06-01T05:29:32.575Z,52.58
2019-06-01T05:32:05.815Z,52.71
2019-06-01T05:34:38.970Z,48.94
2019-06-01T05:37:12.383Z,46.08
2019-06-01T05:39:45.485Z,47.90
2019-06-01T05:42:18.995Z,50.31
2019-06-01T05:44:52.301Z,48.28
2019-06-01T05:47:25.387Z,47.86
2019-06-01T05:49:58.514Z,48.26
2019-06-01T05:52:31.650Z,46.82
2019-06-01T05:55:06.511Z,47.69
2019-06-01T05:57:39.579Z,46.83
2019-06-01T06:00:13.207Z,46.37
2019-06-01T06:02:46.401Z,49.00
2019-06-01T06:05:19.523Z,49.11
2019-06-01T06:07:52.669Z,45.23
2019-06-01T06:10:25.825Z,47.12
2019-06-01T06:12:59.228Z,42.88
2019-06-01T06:15:32.414Z,41.44
2019-06-01T06:18:07.159Z,43.52
2019-06-01T06:20:40.484Z,43.91
2019-06-01T06:23:14.239Z,45.69
2019-06-01T06:25:47.493Z,45.73
2019-06-01T06:28:20.822Z,43.81
2019-06-01T06:30:54.010Z,43.29
2019-06-01T06:33:27.233Z,42.57
2019-06-01T06:36:01.551Z,43.01
2019-06-01T06:38:34.797Z,41.69
2019-06-01T06:41:08.066Z,42.05
2019-06-01T06:43:41.155Z,40.16
2019-06-01T06:46:16.658Z,43.65
2019-06-01T06:48:49.722Z,40.46
2019-06-01T06:51:23.362Z,44.07
2019-06-01T06:53:56.680Z,43.31
2019-06-01T06:56:29.788Z,43.28
2019-06-01T06:59:03.004Z,45.03
2019-06-01T07:01:36.151Z,44.45
2019-06-01T07:04:12.785Z,44.55
2019-06-01T07:06:44.222Z,45.11
2019-06-01T07:09:17.865Z,45.14
2019-06-01T07:11:52.252Z,45.30
2019-06-01T07:14:25.553Z,44.97
2019-06-01T07:17:00.256Z,44.17
2019-06-01T07:19:33.532Z,44.63
2019-06-01T07:22:06.822Z,43.90
2019-06-01T07:24:40.077Z,44.33
2019-06-01T07:27:13.207Z,42.76
2019-06-01T07:29:46.286Z,43.18
2019-06-01T07:32:20.218Z,42.36
2019-06-01T07:34:53.397Z,40.49
2019-06-01T07:37:26.555Z,39.01
2019-06-01T07:39:59.769Z,39.43
2019-06-01T07:42:33.203Z,40.19
2019-06-01T07:45:07.059Z,40.28
2019-06-01T07:47:40.337Z,38.99
2019-06-01T07:50:13.643Z,40.07
2019-06-01T07:52:46.884Z,40.07
2019-06-01T07:55:21.465Z,39.69
2019-06-01T07:57:56.572Z,39.67
2019-06-01T08:00:29.763Z,38.47
2019-06-01T08:03:02.982Z,38.65
2019-06-01T08:05:36.069Z,36.62
2019-06-01T08:08:09.218Z,35.77
2019-06-01T08:10:42.599Z,35.85
2019-06-01T08:13:15.819Z,34.88
2019-06-01T08:15:49.028Z,33.98
2019-06-01T08:18:23.925Z,29.86
2019-06-01T08:20:57.128Z,33.57
2019-06-01T08:23:30.396Z,29.76
2019-06-01T08:26:03.433Z,32.55
2019-06-01T08:28:36.563Z,30.25
2019-06-01T08:31:09.752Z,29.02
2019-06-01T08:33:43.021Z,28.97
2019-06-01T08:36:17.296Z,28.46
2019-06-01T08:38:50.429Z,27.54
2019-06-01T08:41:23.506Z,27.51
2019-06-01T08:43:56.805Z,25.45
2019-06-01T08:46:29.899Z,22.90
2019-06-01T08:49:04.684Z,24.91
2019-06-01T08:51:37.841Z,24.23
2019-06-01T08:54:14.016Z,22.72
2019-06-01T08:56:48.703Z,17.89
2019-06-01T08:59:21.841Z,17.87
2019-06-01T09:01:54.905Z,15.38
2019-06-01T09:04:28.816Z,15.25
2019-06-01T09:07:02.020Z,13.89
2019-06-01T09:09:36.167Z,12.76
2019-06-01T09:12:08.618Z,13.21
2019-06-01T09:14:42.998Z,12.90
2019-06-01T09:17:18.658Z,13.60
2019-06-01T09:19:51.161Z,12.53
2019-06-01T09:22:25.786Z,13.39
2019-06-01T09:24:59.005Z,14.04
2019-06-01T09:27:33.950Z,14.23
2019-06-01T09:30:08.293Z,16.36
2019-06-01T09:32:42.784Z,17.06
2019-06-01T09:35:15.948Z,17.37
2019-06-01T09:37:49.159Z,17.15
2019-06-01T09:40:22.229Z,18.27
2019-06-01T09:42:54.648Z,18.20
2019-06-01T09:45:27.888Z,18.46
2019-06-01T09:48:01.146Z,19.18
2019-06-01T09:50:35.554Z,20.09
2019-06-01T09:53:10.237Z,19.27
2019-06-01T09:55:45.009Z,20.72
2019-06-01T09:58:18.357Z,21.09
2019-06-01T10:00:51.701Z,22.18
2019-06-01T10:03:24.870Z,22.24
2019-06-01T10:06:01.983Z,21.59
2019-06-01T10:08:34.325Z,21.92
2019-06-01T10:11:07.747Z,22.53
2019-06-01T10:13:40.887Z,22.66
2019-06-01T10:16:14.059Z,21.70
2019-06-01T10:18:46.610Z,22.22
2019-06-01T10:21:36.154Z,23.08
2019-06-01T10:24:09.384Z,23.50
2019-06-01T10:26:42.455Z,23.28
2019-06-01T10:29:16.688Z,22.00
2019-06-01T10:31:49.961Z,23.49
2019-06-01T10:34:23.175Z,24.43
2019-06-01T10:36:56.330Z,24.49
2019-06-01T10:39:31.134Z,24.38
2019-06-01T10:42:05.731Z,23.55
2019-06-01T10:44:43.387Z,23.73
2019-06-01T10:47:13.069Z,23.10
2019-06-01T10:49:45.573Z,23.59
2019-06-01T10:52:18.598Z,23.59
2019-06-01T10:54:51.616Z,23.53
2019-06-01T10:57:24.862Z,23.75
2019-06-01T10:59:58.029Z,23.99
2019-06-01T11:02:32.542Z,23.53
2019-06-01T11:05:10.419Z,23.95
2019-06-01T11:07:43.747Z,25.25
2019-06-01T11:10:18.011Z,22.78
2019-06-01T11:12:51.253Z,22.17
2019-06-01T11:15:24.559Z,23.61
2019-06-01T11:17:59.002Z,22.32
2019-06-01T11:20:33.037Z,23.11
2019-06-01T11:23:06.416Z,24.06
2019-06-01T11:25:39.738Z,23.45
2019-06-01T11:28:13.098Z,23.89
2019-06-01T11:30:47.533Z,22.96
2019-06-01T11:33:21.799Z,23.82
2019-06-01T11:35:54.991Z,22.48
2019-06-01T11:38:28.152Z,23.82
2019-06-01T11:41:01.364Z,22.90
2019-06-01T11:43:34.687Z,23.78
2019-06-01T11:46:07.971Z,21.59
2019-06-01T11:48:41.452Z,21.83
2019-06-01T11:51:14.709Z,22.70
2019-06-01T11:53:49.708Z,22.95
2019-06-01T11:56:25.405Z,22.50
2019-06-01T11:58:58.602Z,21.94
2019-06-01T12:01:31.888Z,23.98
2019-06-01T12:04:05.266Z,22.70
2019-06-01T12:06:39.726Z,23.69
2019-06-01T12:09:12.934Z,21.38
2019-06-01T12:11:46.487Z,21.01
2019-06-01T12:14:19.701Z,21.43
2019-06-01T12:16:52.780Z,21.06
2019-06-01T12:19:25.958Z,21.10
2019-06-01T12:22:00.310Z,20.01
2019-06-01T12:24:34.600Z,19.98
2019-06-01T12:27:07.827Z,20.66
2019-06-01T12:29:41.483Z,21.11
2019-06-01T12:32:14.782Z,20.91
2019-06-01T12:34:48.460Z,21.65
2019-06-01T12:37:39.820Z,21.98
2019-06-01T12:39:58.904Z,22.75
2019-06-01T12:42:33.727Z,22.13
2019-06-01T12:45:08.835Z,22.86
2019-06-01T12:47:41.894Z,21.59
2019-06-01T12:50:15.419Z,22.34
2019-06-01T12:52:48.698Z,21.67
2019-06-01T12:55:21.887Z,22.27
2019-06-01T12:57:56.129Z,21.55
2019-06-01T13:00:30.534Z,20.80
2019-06-01T13:03:07.648Z,20.03
2019-06-01T13:05:39.766Z,19.55
2019-06-01T13:08:13.139Z,20.70
2019-06-01T13:10:47.208Z,21.40
2019-06-01T13:13:20.456Z,20.89
2019-06-01T13:15:53.617Z,20.66
2019-06-01T13:18:26.779Z,20.97
2019-06-01T13:20:59.904Z,20.86
2019-06-01T13:23:33.213Z,20.85
2019-06-01T13:26:09.916Z,20.82
2019-06-01T13:28:43.982Z,20.88
2019-06-01T13:31:19.376Z,20.01
2019-06-01T13:33:53.709Z,20.03
2019-06-01T13:36:27.937Z,19.09
2019-06-01T13:39:01.095Z,19.83
2019-06-01T13:41:37.125Z,19.80
2019-06-01T13:44:10.343Z,20.08
2019-06-01T13:46:43.654Z,20.81
2019-06-01T13:49:16.973Z,20.74
2019-06-01T13:51:50.465Z,20.38
2019-06-01T13:54:23.866Z,20.11
2019-06-01T13:56:58.996Z,20.24
2019-06-01T13:59:33.280Z,20.27
2019-06-01T14:02:08.157Z,20.08
2019-06-01T14:04:41.348Z,20.28
2019-06-01T14:07:14.598Z,20.68
2019-06-01T14:09:49.020Z,20.42
2019-06-01T14:12:22.243Z,20.57
2019-06-01T14:14:55.671Z,20.48
2019-06-01T14:17:28.849Z,20.72
2019-06-01T14:20:06.823Z,20.55
2019-06-01T14:22:41.678Z,20.60
2019-06-01T14:25:15.601Z,20.54
2019-06-01T14:27:50.396Z,20.46
2019-06-01T14:30:24.224Z,20.56
2019-06-01T14:33:01.206Z,20.58
2019-06-01T14:35:35.800Z,20.86
2019-06-01T14:38:09.403Z,21.42
2019-06-01T14:40:42.565Z,21.37
2019-06-01T14:43:15.813Z,21.22
2019-06-01T14:45:49.637Z,22.40
2019-06-01T14:48:23.104Z,20.84
2019-06-01T14:50:57.800Z,21.04
2019-06-01T14:53:31.098Z,21.33
2019-06-01T14:56:04.511Z,20.58
2019-06-01T14:58:37.946Z,20.91
2019-06-01T15:01:11.191Z,21.06
2019-06-01T15:03:44.492Z,22.31
2019-06-01T15:06:20.740Z,23.53
2019-06-01T15:09:13.172Z,24.26
2019-06-01T15:11:27.583Z,23.78
2019-06-01T15:14:00.675Z,24.38
2019-06-01T15:16:33.811Z,26.00
2019-06-01T15:19:07.010Z,26.60
2019-06-01T15:21:41.184Z,27.61
2019-06-01T15:24:14.390Z,29.05
2019-06-01T15:26:47.736Z,29.00
2019-06-01T15:29:21.049Z,29.96
2019-06-01T15:31:54.285Z,30.99
2019-06-01T15:34:27.433Z,31.36
2019-06-01T15:37:01.774Z,30.95
2019-06-01T15:39:35.419Z,31.08
2019-06-01T15:42:08.730Z,31.22
2019-06-01T15:44:42.044Z,32.05
2019-06-01T15:47:16.754Z,31.37
2019-06-01T15:49:50.002Z,31.62
2019-06-01T15:52:23.348Z,33.11
2019-06-01T15:54:56.541Z,32.72
2019-06-01T15:57:29.761Z,33.49
2019-06-01T16:00:03.727Z,33.23
2019-06-01T16:02:36.249Z,34.08
2019-06-01T16:05:09.515Z,34.18
2019-06-01T16:07:42.705Z,34.77
2019-06-01T16:10:17.007Z,35.87
2019-06-01T16:12:51.378Z,34.32
2019-06-01T16:15:24.620Z,30.53
2019-06-01T16:17:57.988Z,30.26
2019-06-01T16:20:30.973Z,30.78
2019-06-01T16:23:05.196Z,32.05
2019-06-01T16:25:38.719Z,31.78
2019-06-01T16:28:14.337Z,31.61
2019-06-01T16:30:47.552Z,31.39
2019-06-01T16:33:20.783Z,31.46
2019-06-01T16:35:56.912Z,31.52
2019-06-01T16:38:30.319Z,31.78
2019-06-01T16:41:03.596Z,31.63
2019-06-01T16:43:36.761Z,32.63
2019-06-01T16:46:11.116Z,34.26
2019-06-01T16:48:45.268Z,38.01
2019-06-01T16:51:18.471Z,33.93
2019-06-01T16:53:53.299Z,35.02
2019-06-01T16:56:26.715Z,35.24
2019-06-01T16:59:00.196Z,37.71
2019-06-01T17:01:33.467Z,37.47
2019-06-01T17:04:06.714Z,38.20
2019-06-01T17:06:39.930Z,38.19
2019-06-01T17:09:14.365Z,36.61
2019-06-01T17:11:47.619Z,36.12
2019-06-01T17:14:20.972Z,35.97
2019-06-01T17:16:54.308Z,35.21
2019-06-01T17:19:27.681Z,35.87
2019-06-01T17:22:01.456Z,36.51
2019-06-01T17:24:34.759Z,35.91
2019-06-01T17:27:08.275Z,36.83
2019-06-01T17:29:46.618Z,38.01
2019-06-01T17:32:24.558Z,38.45
2019-06-01T17:34:54.842Z,38.85
2019-06-01T17:37:28.135Z,39.19
2019-06-01T17:40:02.524Z,39.23
2019-06-01T17:42:35.914Z,38.38
2019-06-01T17:45:09.617Z,38.88
2019-06-01T17:47:42.848Z,36.88
2019-06-01T17:50:18.250Z,36.72
2019-06-01T17:52:50.972Z,36.58
2019-06-01T17:55:32.005Z,37.69
2019-06-01T17:58:05.774Z,38.44
2019-06-01T18:00:42.103Z,40.72
2019-06-01T18:03:15.460Z,40.20
2019-06-01T18:05:48.870Z,41.47
2019-06-01T18:08:22.345Z,40.58
2019-06-01T18:10:55.615Z,40.11
2019-06-01T18:13:28.689Z,39.56
2019-06-01T18:16:03.002Z,39.17
2019-06-01T18:18:36.694Z,39.16
2019-06-01T18:21:10.404Z,39.80
2019-06-01T18:23:43.800Z,43.26
2019-06-01T18:26:16.914Z,42.61
2019-06-01T18:28:50.102Z,41.12
2019-06-01T18:31:23.353Z,43.55
2019-06-01T18:33:58.911Z,45.74
2019-06-01T18:36:32.187Z,47.04
2019-06-01T18:39:07.588Z,47.67
2019-06-01T18:41:40.980Z,48.29
2019-06-01T18:44:14.348Z,48.53
2019-06-01T18:46:47.615Z,48.90
2019-06-01T18:49:20.901Z,49.65
2019-06-01T18:51:54.094Z,49.71
2019-06-01T18:54:27.328Z,49.92
2019-06-01T18:57:09.647Z,50.51
2019-06-01T18:59:35.499Z,50.85
2019-06-01T19:02:08.673Z,49.57
2019-06-01T19:04:41.935Z,50.31
2019-06-01T19:07:17.538Z,49.44
2019-06-01T19:09:50.868Z,49.48
2019-06-01T19:12:24.550Z,50.83
2019-06-01T19:14:59.041Z,50.00
2019-06-01T19:17:32.150Z,50.27
2019-06-01T19:20:08.490Z,49.82
2019-06-01T19:22:41.734Z,45.51
2019-06-01T19:25:17.847Z,43.00
2019-06-01T19:27:51.055Z,46.16
2019-06-01T19:30:43.610Z,47.88
2019-06-01T19:33:19.173Z,48.47
2019-06-01T19:35:53.114Z,49.51
2019-06-01T19:38:26.492Z,49.60
2019-06-01T19:40:59.739Z,50.12
2019-06-01T19:43:32.878Z,49.90
2019-06-01T19:46:06.115Z,49.83
2019-06-01T19:48:39.280Z,49.90
2019-06-01T19:51:12.524Z,51.17
2019-06-01T19:53:45.765Z,51.02
2019-06-01T19:56:21.866Z,49.28
2019-06-01T19:58:55.624Z,48.43
2019-06-01T20:01:29.092Z,49.26
2019-06-01T20:04:02.486Z,48.21
2019-06-01T20:06:35.785Z,47.38
2019-06-01T20:09:09.176Z,46.55
2019-06-01T20:11:42.470Z,46.96
2019-06-01T20:14:16.435Z,47.00
2019-06-01T20:16:49.525Z,47.62
2019-06-01T20:19:23.103Z,47.48
2019-06-01T20:21:56.104Z,48.41
2019-06-01T20:24:29.430Z,48.94
2019-06-01T20:27:02.770Z,49.41
2019-06-01T20:29:35.956Z,50.48
2019-06-01T20:32:09.262Z,50.91
2019-06-01T20:34:42.549Z,52.29
2019-06-01T20:37:15.936Z,51.16
2019-06-01T20:39:48.989Z,51.58
2019-06-01T20:42:31.746Z,52.27
2019-06-01T20:44:57.164Z,52.53
2019-06-01T20:47:30.540Z,52.97
2019-06-01T20:50:06.161Z,53.57
2019-06-01T20:52:39.364Z,53.81
2019-06-01T20:55:13.161Z,54.16
2019-06-01T20:57:46.569Z,54.60
2019-06-01T21:00:19.877Z,55.04
2019-06-01T21:02:53.063Z,55.42
2019-06-01T21:05:26.366Z,55.67
2019-06-01T21:07:59.636Z,55.89
2019-06-01T21:10:32.559Z,56.07
2019-06-01T21:13:08.163Z,56.51
2019-06-01T21:15:41.584Z,56.80
2019-06-01T21:18:16.157Z,57.22
2019-06-01T21:20:49.441Z,57.27
2019-06-01T21:23:23.092Z,57.51
2019-06-01T21:25:56.207Z,57.64
2019-06-01T21:28:29.588Z,57.63
2019-06-01T21:31:02.800Z,57.47
2019-06-01T21:33:36.039Z,57.31
2019-06-01T21:36:09.245Z,57.60
2019-06-01T21:38:42.544Z,57.61
2019-06-01T21:41:15.697Z,57.27
2019-06-01T21:43:49.017Z,57.36
2019-06-01T21:46:22.314Z,57.43
2019-06-01T21:48:55.545Z,57.06
2019-06-01T21:51:30.538Z,57.04
2019-06-01T21:54:04.708Z,57.52
2019-06-01T21:56:38.060Z,57.69
2019-06-01T21:59:11.184Z,57.93
2019-06-01T22:01:44.446Z,58.17
2019-06-01T22:04:18.683Z,58.16
2019-06-01T22:06:53.050Z,58.34
2019-06-01T22:09:27.420Z,58.36
2019-06-01T22:11:59.929Z,58.18
2019-06-01T22:14:32.953Z,58.12
2019-06-01T22:17:06.306Z,57.82
2019-06-01T22:19:39.607Z,57.64
2019-06-01T22:22:12.868Z,57.55
2019-06-01T22:24:46.063Z,57.59
2019-06-01T22:27:20.088Z,57.69
2019-06-01T22:29:53.404Z,57.58
2019-06-01T22:32:29.991Z,57.61
2019-06-01T22:35:01.809Z,57.35
2019-06-01T22:37:35.103Z,57.36
2019-06-01T22:40:08.801Z,57.23
2019-06-01T22:42:41.756Z,57.12
2019-06-01T22:45:15.093Z,57.11
2019-06-01T22:47:48.380Z,57.37
2019-06-01T22:50:22.710Z,57.73
2019-06-01T22:52:55.956Z,58.06
2019-06-01T22:55:29.406Z,58.08
2019-06-01T22:58:02.763Z,57.94
2019-06-01T23:00:35.884Z,57.73
2019-06-01T23:03:09.115Z,57.49
2019-06-01T23:05:42.305Z,57.64
2019-06-01T23:08:16.692Z,57.83
2019-06-01T23:10:49.761Z,58.03
2019-06-01T23:13:24.100Z,58.26
2019-06-01T23:15:56.539Z,57.69
2019-06-01T23:18:29.898Z,57.39
2019-06-01T23:21:02.924Z,56.92
2019-06-01T23:23:37.749Z,56.56
2019-06-01T23:26:10.959Z,56.43
2019-06-01T23:28:45.353Z,56.46
2019-06-01T23:31:22.260Z,56.56
2019-06-01T23:33:55.533Z,56.75
2019-06-01T23:36:29.013Z,56.86
2019-06-01T23:39:02.297Z,57.03
2019-06-01T23:41:36.649Z,56.62
2019-06-01T23:44:12.128Z,56.66
2019-06-01T23:46:43.931Z,56.80
2019-06-01T23:49:18.308Z,56.82
2019-06-01T23:51:51.505Z,56.95
2019-06-01T23:54:25.778Z,57.32
2019-06-01T23:56:58.896Z,57.24
2019-06-01T23:59:32.521Z,57.43
